createdAt,value
2022-08-16T00:00:52.326Z,19.93
2022-08-16T00:01:52.110Z,20.01
2022-08-16T00:02:52.102Z,20.12
2022-08-16T00:03:52.066Z,20.12
2022-08-16T00:04:52.049Z,20.16
2022-08-16T00:05:57.538Z,20.21
2022-08-16T00:06:52.062Z,20.21
2022-08-16T00:07:56.336Z,20.12
2022-08-16T00:08:52.371Z,20.09
2022-08-16T00:09:52.167Z,20.11
2022-08-16T00:10:52.074Z,20.11
2022-08-16T00:11:52.832Z,20.47
2022-08-16T00:12:52.047Z,20.55
2022-08-16T00:13:53.554Z,20.32
2022-08-16T00:14:52.054Z,20.35
2022-08-16T00:15:54.185Z,20.49
2022-08-16T00:17:00.548Z,20.49
2022-08-16T00:17:56.177Z,20.4
2022-08-16T00:18:52.057Z,20.17
2022-08-16T00:19:53.542Z,20.01
2022-08-16T00:20:52.062Z,19.77
2022-08-16T00:21:54.455Z,19.68
2022-08-16T00:22:52.048Z,19.8
2022-08-16T00:23:52.036Z,19.75
2022-08-16T00:24:52.047Z,19.47
2022-08-16T00:26:33.676Z,19.3
2022-08-16T00:26:52.041Z,19.36
2022-08-16T00:27:52.038Z,19.33
2022-08-16T00:28:54.849Z,19.33
2022-08-16T00:30:08.739Z,19.87
2022-08-16T00:30:52.072Z,19.73
2022-08-16T00:32:00.609Z,19.56
2022-08-16T00:32:52.042Z,19.56
2022-08-16T00:33:52.047Z,19.72
2022-08-16T00:34:53.217Z,19.66
2022-08-16T00:35:52.077Z,19.6
2022-08-16T00:36:55.793Z,19.68
2022-08-16T00:37:57.335Z,19.73
2022-08-16T00:38:52.044Z,19.75
2022-08-16T00:39:58.160Z,19.51
2022-08-16T00:40:53.650Z,19.51
2022-08-16T00:41:52.053Z,19.27
2022-08-16T00:42:54.812Z,19.27
2022-08-16T00:43:52.053Z,19.34
2022-08-16T00:44:52.059Z,19.48
2022-08-16T00:45:58.274Z,19.5
2022-08-16T00:46:52.665Z,19.14
2022-08-16T00:47:52.051Z,19.02
2022-08-16T00:48:52.060Z,19.41
2022-08-16T00:49:56.685Z,19.38
2022-08-16T00:50:55.389Z,19.39
2022-08-16T00:51:54.921Z,19.55
2022-08-16T00:52:53.599Z,19.5
2022-08-16T00:53:52.050Z,19.48
2022-08-16T00:54:52.096Z,19.44
2022-08-16T00:55:52.067Z,19.31
2022-08-16T00:56:57.007Z,19.31
2022-08-16T00:57:58.991Z,19.15
2022-08-16T00:58:52.059Z,19.05
2022-08-16T00:59:58.896Z,19.04
2022-08-16T01:00:53.957Z,18.98
2022-08-16T01:01:52.056Z,19.13
2022-08-16T01:02:52.288Z,19.19
2022-08-16T01:03:52.055Z,19.24
2022-08-16T01:05:09.029Z,19.28
2022-08-16T01:05:52.059Z,19.33
2022-08-16T01:07:01.078Z,19.3
2022-08-16T01:07:53.134Z,19.25
2022-08-16T01:08:52.045Z,19.23
2022-08-16T01:09:52.050Z,19.16
2022-08-16T01:10:52.071Z,19.16
2022-08-16T01:11:54.978Z,19.17
2022-08-16T01:12:52.079Z,19.1
2022-08-16T01:13:53.114Z,19.19
2022-08-16T01:14:53.358Z,19.24
2022-08-16T01:15:52.837Z,19.22
2022-08-16T01:16:52.044Z,19.22
2022-08-16T01:17:55.924Z,19.33
2022-08-16T01:18:52.043Z,19.23
2022-08-16T01:19:52.059Z,19.23
2022-08-16T01:20:52.060Z,19.26
2022-08-16T01:21:52.040Z,19.1
2022-08-16T01:22:52.274Z,19.15
2022-08-16T01:23:58.638Z,19.17
2022-08-16T01:24:55.647Z,19.23
2022-08-16T01:25:59.851Z,19.18
2022-08-16T01:26:52.053Z,19.16
2022-08-16T01:27:52.048Z,19.08
2022-08-16T01:28:52.039Z,19
2022-08-16T01:29:57.971Z,19.06
2022-08-16T01:30:52.067Z,18.86
2022-08-16T01:31:52.039Z,18.71
2022-08-16T01:33:02.371Z,18.78
2022-08-16T01:33:52.042Z,18.78
2022-08-16T01:34:56.673Z,18.71
2022-08-16T01:35:53.354Z,18.72
2022-08-16T01:36:58.259Z,18.77
2022-08-16T01:37:52.884Z,18.9
2022-08-16T01:38:57.150Z,18.6
2022-08-16T01:39:52.111Z,18.45
2022-08-16T01:40:52.074Z,18.37
2022-08-16T01:41:52.067Z,18.47
2022-08-16T01:42:53.931Z,18.65
2022-08-16T01:43:53.787Z,18.72
2022-08-16T01:44:52.220Z,18.7
2022-08-16T01:45:57.562Z,18.67
2022-08-16T01:46:52.061Z,18.65
2022-08-16T01:47:52.184Z,18.65
2022-08-16T01:48:52.053Z,18.73
2022-08-16T01:50:42.375Z,18.55
2022-08-16T01:51:08.980Z,18.55
2022-08-16T01:51:52.058Z,18.63
2022-08-16T01:52:52.050Z,18.63
2022-08-16T01:53:55.897Z,18.64
2022-08-16T01:54:53.464Z,18.57
2022-08-16T01:55:53.997Z,18.57
2022-08-16T01:56:52.053Z,18.64
2022-08-16T01:57:53.178Z,18.62
2022-08-16T01:58:52.054Z,18.61
2022-08-16T01:59:54.424Z,18.61
2022-08-16T02:04:54.772Z,18.5
2022-08-16T02:05:52.262Z,18.56
2022-08-16T02:06:52.049Z,18.56
2022-08-16T02:07:53.495Z,18.56
2022-08-16T02:08:52.048Z,18.66
2022-08-16T02:09:58.907Z,18.68
2022-08-16T02:10:52.066Z,18.6
2022-08-16T02:11:53.345Z,18.41
2022-08-16T02:12:56.001Z,18.44
2022-08-16T02:13:54.721Z,18.44
2022-08-16T02:14:52.085Z,18.57
2022-08-16T02:15:52.040Z,18.37
2022-08-16T02:16:52.140Z,18.43
2022-08-16T02:17:52.710Z,18.46
2022-08-16T02:18:52.041Z,18.46
2022-08-16T02:19:59.431Z,18.53
2022-08-16T02:20:53.374Z,18.59
2022-08-16T02:22:08.666Z,18.66
2022-08-16T02:22:52.040Z,18.61
2022-08-16T02:23:55.708Z,18.54
2022-08-16T02:24:52.039Z,18.57
2022-08-16T02:25:54.085Z,18.49
2022-08-16T02:26:52.057Z,18.49
2022-08-16T02:27:52.056Z,18.37
2022-08-16T02:28:52.735Z,18.44
2022-08-16T02:29:52.051Z,18.4
2022-08-16T02:30:52.279Z,18.39
2022-08-16T02:32:04.622Z,18.39
2022-08-16T02:32:52.047Z,18.17
2022-08-16T02:33:52.041Z,18.3
2022-08-16T02:34:52.045Z,18.24
2022-08-16T02:35:55.259Z,18.25
2022-08-16T02:36:52.073Z,18.48
2022-08-16T02:37:52.953Z,18.48
2022-08-16T02:38:52.033Z,18.02
2022-08-16T02:39:53.978Z,18.42
2022-08-16T02:40:54.345Z,18.33
2022-08-16T02:41:53.231Z,18.33
2022-08-16T02:42:52.284Z,18.46
2022-08-16T02:43:52.047Z,18.41
2022-08-16T02:44:52.037Z,18.13
2022-08-16T02:45:52.042Z,18.33
2022-08-16T02:46:53.782Z,18.41
2022-08-16T02:48:01.330Z,18.17
2022-08-16T02:48:52.031Z,18.17
2022-08-16T02:50:40.352Z,18.33
2022-08-16T02:50:55.018Z,18.49
2022-08-16T02:51:52.058Z,18.36
2022-08-16T02:52:52.038Z,17.92
2022-08-16T02:53:52.032Z,17.92
2022-08-16T02:54:55.617Z,17.92
2022-08-16T02:55:52.063Z,18.23
2022-08-16T02:56:52.055Z,18.48
2022-08-16T02:57:54.138Z,18.17
2022-08-16T02:58:52.052Z,18.08
2022-08-16T02:59:52.055Z,18.08
2022-08-16T03:00:52.116Z,18.21
2022-08-16T03:01:52.094Z,18.31
2022-08-16T03:02:55.702Z,18.17
2022-08-16T03:04:40.101Z,18.03
2022-08-16T03:04:52.725Z,17.92
2022-08-16T03:05:52.518Z,17.9
2022-08-16T03:06:56.573Z,17.99
2022-08-16T03:07:52.042Z,18.14
2022-08-16T03:08:53.325Z,18.14
2022-08-16T03:09:52.052Z,18.02
2022-08-16T03:10:52.084Z,17.96
2022-08-16T03:11:52.053Z,17.97
2022-08-16T03:12:56.302Z,18.09
2022-08-16T03:13:53.207Z,18.27
2022-08-16T03:14:52.042Z,18.24
2022-08-16T03:15:52.042Z,18.35
2022-08-16T03:16:59.553Z,18.35
2022-08-16T03:17:53.554Z,18.35
2022-08-16T03:18:52.041Z,18.35
2022-08-16T03:19:56.542Z,18.22
2022-08-16T03:20:55.835Z,18.09
2022-08-16T03:21:52.068Z,18.11
2022-08-16T03:22:52.058Z,18.09
2022-08-16T03:23:52.057Z,18.09
2022-08-16T03:24:52.055Z,17.82
2022-08-16T03:25:52.078Z,17.79
2022-08-16T03:26:52.067Z,17.79
2022-08-16T03:27:52.056Z,17.47
2022-08-16T03:28:52.045Z,17.28
2022-08-16T03:29:54.640Z,17.21
2022-08-16T03:30:52.053Z,17.04
2022-08-16T03:31:52.374Z,17.04
2022-08-16T03:32:52.240Z,17.04
2022-08-16T03:33:52.266Z,17.03
2022-08-16T03:34:52.042Z,17.36
2022-08-16T03:35:57.073Z,17.39
2022-08-16T03:36:52.226Z,17.57
2022-08-16T03:38:02.689Z,17.57
2022-08-16T03:38:52.061Z,17.58
2022-08-16T03:39:56.242Z,17.69
2022-08-16T03:40:52.075Z,17.69
2022-08-16T03:41:59.343Z,17.7
2022-08-16T03:43:18.707Z,17.68
2022-08-16T03:43:52.405Z,17.72
2022-08-16T03:44:52.062Z,17.6
2022-08-16T03:45:52.864Z,17.6
2022-08-16T03:46:52.075Z,17.59
2022-08-16T03:47:52.054Z,17.64
2022-08-16T03:48:52.057Z,17.69
2022-08-16T03:49:52.366Z,17.59
2022-08-16T03:50:59.889Z,17.51
2022-08-16T03:51:52.227Z,17.49
2022-08-16T03:52:52.059Z,17.56
2022-08-16T03:53:57.785Z,17.64
2022-08-16T03:54:58.232Z,17.22
2022-08-16T03:55:52.763Z,17.66
2022-08-16T03:56:57.598Z,17.67
2022-08-16T03:57:52.405Z,17.54
2022-08-16T03:58:52.657Z,17.55
2022-08-16T03:59:52.047Z,17.63
2022-08-16T04:00:56.941Z,17.56
2022-08-16T04:01:53.810Z,17.6
2022-08-16T04:02:52.046Z,17.74
2022-08-16T04:03:52.928Z,17.77
2022-08-16T04:04:52.046Z,17.67
2022-08-16T04:05:54.180Z,17.77
2022-08-16T04:06:52.063Z,17.82
2022-08-16T04:07:52.066Z,17.91
2022-08-16T04:08:52.059Z,18.11
2022-08-16T04:09:52.063Z,17.98
2022-08-16T04:10:52.085Z,18.04
2022-08-16T04:11:52.068Z,18.06
2022-08-16T04:13:04.149Z,18.05
2022-08-16T04:14:00.302Z,18
2022-08-16T04:14:52.055Z,18
2022-08-16T04:15:52.880Z,18
2022-08-16T04:16:52.075Z,17.95
2022-08-16T04:17:52.059Z,18.15
2022-08-16T04:18:52.065Z,18.15
2022-08-16T04:19:54.883Z,18.52
2022-08-16T04:20:52.060Z,18.52
2022-08-16T04:21:52.071Z,18.42
2022-08-16T04:22:52.060Z,18.33
2022-08-16T04:23:52.057Z,18.54
2022-08-16T04:24:54.249Z,18.58
2022-08-16T04:25:52.064Z,18.59
2022-08-16T04:26:52.066Z,18.53
2022-08-16T04:27:54.139Z,18.39
2022-08-16T04:29:14.584Z,18.34
2022-08-16T04:29:52.447Z,18.58
2022-08-16T04:30:52.056Z,18.58
2022-08-16T04:31:55.550Z,18.59
2022-08-16T04:32:52.047Z,18.29
2022-08-16T04:33:52.058Z,18.17
2022-08-16T04:34:52.062Z,18.17
2022-08-16T04:35:52.046Z,18.32
2022-08-16T04:36:52.058Z,18.32
2022-08-16T04:37:53.957Z,18.39
2022-08-16T04:38:52.392Z,18.45
2022-08-16T04:39:55.832Z,18.59
2022-08-16T04:40:52.065Z,18.59
2022-08-16T04:41:56.600Z,18.95
2022-08-16T04:42:52.352Z,18.54
2022-08-16T04:43:52.040Z,18.62
2022-08-16T04:44:53.892Z,18.8
2022-08-16T04:46:00.292Z,18.8
2022-08-16T04:47:03.104Z,18.8
2022-08-16T04:47:56.007Z,18.81
2022-08-16T04:48:52.163Z,18.81
2022-08-16T04:49:52.290Z,18.81
2022-08-16T04:50:52.047Z,18.84
2022-08-16T04:51:53.912Z,18.94
2022-08-16T04:52:52.051Z,18.93
2022-08-16T04:53:52.080Z,19.08
2022-08-16T04:54:52.046Z,19.24
2022-08-16T04:55:53.261Z,19.24
2022-08-16T04:56:52.062Z,19.13
2022-08-16T04:57:52.596Z,19.13
2022-08-16T04:58:52.053Z,19.01
2022-08-16T04:59:54.306Z,18.98
2022-08-16T05:00:52.070Z,18.95
2022-08-16T05:01:58.454Z,19.07
2022-08-16T05:02:56.275Z,19.13
2022-08-16T05:04:00.378Z,19.17
2022-08-16T05:04:52.055Z,19.19
2022-08-16T05:05:58.949Z,19.37
2022-08-16T05:06:52.067Z,19.37
2022-08-16T05:07:58.412Z,19.31
2022-08-16T05:08:52.054Z,19.2
2022-08-16T05:09:52.041Z,19.24
2022-08-16T05:10:52.066Z,19.33
2022-08-16T05:11:52.069Z,19.35
2022-08-16T05:12:52.059Z,19.35
2022-08-16T05:13:52.055Z,19.26
2022-08-16T05:15:02.717Z,19.32
2022-08-16T05:15:52.055Z,19.53
2022-08-16T05:16:52.289Z,19.58
2022-08-16T05:17:58.458Z,19.58
2022-08-16T05:18:52.060Z,19.55
2022-08-16T05:19:57.988Z,19.62
2022-08-16T05:21:01.482Z,19.54
2022-08-16T05:21:52.075Z,19.73
2022-08-16T05:22:52.977Z,19.69
2022-08-16T05:23:55.877Z,19.66
2022-08-16T05:24:55.141Z,19.68
2022-08-16T05:25:52.055Z,19.65
2022-08-16T05:26:52.170Z,19.65
2022-08-16T05:27:52.048Z,19.62
2022-08-16T05:28:55.660Z,19.71
2022-08-16T05:30:00.949Z,19.85
2022-08-16T05:30:52.039Z,19.74
2022-08-16T05:31:53.377Z,19.74
2022-08-16T05:32:52.436Z,19.68
2022-08-16T05:33:53.664Z,19.8
2022-08-16T05:34:52.038Z,19.92
2022-08-16T05:35:55.099Z,19.92
2022-08-16T05:36:52.089Z,19.93
2022-08-16T05:37:52.049Z,19.96
2022-08-16T05:38:52.044Z,19.96
2022-08-16T05:42:52.281Z,19.8
2022-08-16T05:43:52.037Z,19.81
2022-08-16T05:44:52.045Z,19.85
2022-08-16T05:45:52.038Z,19.89
2022-08-16T05:46:52.043Z,19.95
2022-08-16T05:47:59.456Z,19.99
2022-08-16T05:48:54.671Z,20.04
2022-08-16T05:49:52.050Z,20.04
2022-08-16T05:50:53.100Z,20.04
2022-08-16T05:51:52.048Z,20.08
2022-08-16T05:52:52.064Z,20.18
2022-08-16T05:53:52.057Z,20.28
2022-08-16T05:54:58.430Z,20.37
2022-08-16T05:55:52.050Z,20.37
2022-08-16T05:56:52.057Z,20.41
2022-08-16T05:57:52.617Z,20.47
2022-08-16T05:58:52.063Z,20.54
2022-08-16T05:59:59.672Z,20.43
2022-08-16T06:00:52.058Z,20.47
2022-08-16T06:01:52.260Z,20.44
2022-08-16T06:02:52.053Z,20.45
2022-08-16T06:03:52.054Z,20.62
2022-08-16T06:04:52.044Z,20.73
2022-08-16T06:05:52.055Z,20.66
2022-08-16T06:06:56.691Z,20.67
2022-08-16T06:07:58.329Z,20.68
2022-08-16T06:08:52.058Z,20.78
2022-08-16T06:09:52.638Z,20.85
2022-08-16T06:11:02.816Z,20.75
2022-08-16T06:11:52.062Z,20.75
2022-08-16T06:12:55.364Z,20.81
2022-08-16T06:13:52.037Z,20.98
2022-08-16T06:14:52.042Z,21.06
2022-08-16T06:15:52.037Z,21.15
2022-08-16T06:16:52.060Z,20.99
2022-08-16T06:17:52.037Z,20.97
2022-08-16T06:18:52.043Z,20.97
2022-08-16T06:19:52.041Z,20.88
2022-08-16T06:20:55.731Z,20.88
2022-08-16T06:21:55.154Z,20.76
2022-08-16T06:22:58.913Z,20.93
2022-08-16T06:23:54.195Z,21.01
2022-08-16T06:24:54.348Z,20.99
2022-08-16T06:25:52.932Z,21.08
2022-08-16T06:26:57.893Z,21.02
2022-08-16T06:27:57.467Z,20.98
2022-08-16T06:28:52.466Z,20.87
2022-08-16T06:29:52.043Z,20.88
2022-08-16T06:30:52.055Z,21.06
2022-08-16T06:31:52.068Z,21.03
2022-08-16T06:32:52.349Z,21.09
2022-08-16T06:33:52.053Z,21.09
2022-08-16T06:34:57.090Z,21.09
2022-08-16T06:35:54.933Z,21.05
2022-08-16T06:36:52.073Z,21.06
2022-08-16T06:37:52.555Z,21.11
2022-08-16T06:38:56.433Z,21.17
2022-08-16T06:39:52.102Z,21.19
2022-08-16T06:40:52.054Z,21.26
2022-08-16T06:41:52.069Z,21.29
2022-08-16T06:42:57.290Z,21.29
2022-08-16T06:43:52.046Z,21.29
2022-08-16T06:44:52.057Z,21.38
2022-08-16T06:45:52.059Z,21.4
2022-08-16T06:46:52.075Z,21.46
2022-08-16T06:47:53.877Z,21.45
2022-08-16T06:48:52.058Z,21.54
2022-08-16T06:49:52.877Z,21.58
2022-08-16T06:50:52.048Z,21.56
2022-08-16T06:51:52.589Z,21.56
2022-08-16T06:52:58.207Z,21.63
2022-08-16T06:53:52.753Z,21.65
2022-08-16T06:54:52.057Z,21.7
2022-08-16T06:55:53.809Z,21.7
2022-08-16T06:56:52.386Z,21.83
2022-08-16T06:57:52.066Z,21.74
2022-08-16T06:58:52.052Z,21.74
2022-08-16T06:59:53.194Z,21.79
2022-08-16T07:00:52.117Z,21.89
2022-08-16T07:01:54.944Z,21.89
2022-08-16T07:02:52.290Z,21.96
2022-08-16T07:03:55.082Z,21.94
2022-08-16T07:04:52.672Z,21.96
2022-08-16T07:05:52.058Z,22.14
2022-08-16T07:06:52.076Z,22.07
2022-08-16T07:07:52.057Z,22.07
2022-08-16T07:08:52.041Z,22.08
2022-08-16T07:09:52.072Z,22.11
2022-08-16T07:10:52.062Z,22.15
2022-08-16T07:11:52.376Z,22.19
2022-08-16T07:13:03.845Z,22.33
2022-08-16T07:14:00.360Z,22.28
2022-08-16T07:14:52.045Z,22.28
2022-08-16T07:15:52.052Z,22.34
2022-08-16T07:16:52.084Z,22.39
2022-08-16T07:17:52.054Z,22.5
2022-08-16T07:18:58.774Z,22.55
2022-08-16T07:20:02.747Z,22.55
2022-08-16T07:20:52.052Z,22.63
2022-08-16T07:21:59.452Z,22.67
2022-08-16T07:22:58.550Z,22.75
2022-08-16T07:23:57.825Z,22.89
2022-08-16T07:24:52.049Z,22.92
2022-08-16T07:25:52.056Z,22.96
2022-08-16T07:26:52.079Z,22.94
2022-08-16T07:27:52.088Z,22.94
2022-08-16T07:28:52.062Z,22.86
2022-08-16T07:29:55.555Z,22.91
2022-08-16T07:30:52.044Z,22.49
2022-08-16T07:31:53.934Z,23.03
2022-08-16T07:32:52.249Z,22.86
2022-08-16T07:33:55.084Z,22.92
2022-08-16T07:34:52.265Z,23.01
2022-08-16T07:35:52.058Z,23.1
2022-08-16T07:36:57.872Z,23.16
2022-08-16T07:37:52.070Z,23.28
2022-08-16T07:38:52.058Z,23.28
2022-08-16T07:39:52.126Z,23.18
2022-08-16T07:40:59.698Z,23.09
2022-08-16T07:41:52.069Z,23.08
2022-08-16T07:42:52.111Z,23.04
2022-08-16T07:43:52.050Z,23.1
2022-08-16T07:44:52.050Z,23.1
2022-08-16T07:45:53.103Z,23.33
2022-08-16T07:46:55.488Z,23.98
2022-08-16T07:47:52.052Z,23.32
2022-08-16T07:48:52.060Z,23.33
2022-08-16T07:49:57.710Z,23.27
2022-08-16T07:50:55.778Z,23.24
2022-08-16T07:51:54.497Z,23.35
2022-08-16T07:52:52.170Z,23.42
2022-08-16T07:54:09.169Z,23.54
2022-08-16T07:54:53.309Z,23.36
2022-08-16T07:55:52.060Z,23.37
2022-08-16T07:56:52.068Z,23.47
2022-08-16T07:58:00.684Z,23.47
2022-08-16T07:58:55.588Z,23.49
2022-08-16T07:59:52.108Z,23.45
2022-08-16T08:00:52.121Z,23.48
2022-08-16T08:01:53.020Z,23.53
2022-08-16T08:02:52.417Z,23.6
2022-08-16T08:03:52.053Z,23.66
2022-08-16T08:04:52.043Z,23.61
2022-08-16T08:05:52.042Z,23.6
2022-08-16T08:06:52.084Z,23.58
2022-08-16T08:07:52.053Z,23.58
2022-08-16T08:08:52.825Z,23.64
2022-08-16T08:09:52.040Z,23.64
2022-08-16T08:10:52.047Z,23.77
2022-08-16T08:12:01.017Z,23.66
2022-08-16T08:12:52.324Z,23.56
2022-08-16T08:13:52.043Z,23.56
2022-08-16T08:14:52.037Z,23.67
2022-08-16T08:15:52.646Z,23.67
2022-08-16T08:16:52.078Z,23.83
2022-08-16T08:17:52.049Z,23.89
2022-08-16T08:18:56.046Z,23.92
2022-08-16T08:19:53.160Z,23.75
2022-08-16T08:20:59.231Z,23.7
2022-08-16T08:21:58.871Z,23.58
2022-08-16T08:22:52.044Z,23.66
2022-08-16T08:23:52.053Z,23.66
2022-08-16T08:24:52.052Z,23.66
2022-08-16T08:25:55.061Z,23.68
2022-08-16T08:26:52.067Z,23.79
2022-08-16T08:27:52.085Z,23.91
2022-08-16T08:28:52.056Z,24.02
2022-08-16T08:30:50.447Z,23.84
2022-08-16T08:31:00.931Z,23.94
2022-08-16T08:31:52.069Z,23.98
2022-08-16T08:33:00.495Z,23.86
2022-08-16T08:33:52.052Z,23.79
2022-08-16T08:34:52.049Z,23.78
2022-08-16T08:35:52.049Z,23.79
2022-08-16T08:36:54.319Z,23.9
2022-08-16T08:37:54.311Z,23.95
2022-08-16T08:38:52.058Z,24.06
2022-08-16T08:39:54.861Z,24.06
2022-08-16T08:40:52.052Z,24.04
2022-08-16T08:41:52.071Z,24.02
2022-08-16T08:42:52.057Z,24.15
2022-08-16T08:43:52.146Z,24.15
2022-08-16T08:44:52.047Z,23.99
2022-08-16T08:45:53.220Z,24.1
2022-08-16T08:46:59.781Z,24.06
2022-08-16T08:47:58.389Z,24.06
2022-08-16T08:49:02.127Z,24.04
2022-08-16T08:49:55.554Z,24.23
2022-08-16T08:50:52.056Z,23.93
2022-08-16T08:51:52.083Z,24.01
2022-08-16T08:52:52.840Z,24.17
2022-08-16T08:53:57.809Z,24.17
2022-08-16T08:54:52.043Z,24.18
2022-08-16T08:55:59.238Z,24.28
2022-08-16T08:56:52.369Z,24.38
2022-08-16T08:57:52.056Z,24.37
2022-08-16T08:58:54.800Z,24.39
2022-08-16T08:59:52.830Z,24.43
2022-08-16T09:00:52.078Z,24.43
2022-08-16T09:01:56.624Z,24.4
2022-08-16T09:02:52.682Z,24.4
2022-08-16T09:03:52.149Z,24.4
2022-08-16T09:04:52.039Z,24.39
2022-08-16T09:05:52.044Z,24.47
2022-08-16T09:06:52.083Z,24.46
2022-08-16T09:08:01.664Z,24.44
2022-08-16T09:08:52.046Z,24.33
2022-08-16T09:10:06.894Z,24.34
2022-08-16T09:11:01.964Z,24.53
2022-08-16T09:12:04.164Z,24.48
2022-08-16T09:12:52.437Z,24.45
2022-08-16T09:13:52.043Z,24.55
2022-08-16T09:14:52.056Z,24.45
2022-08-16T09:15:52.074Z,24.45
2022-08-16T09:17:03.820Z,24.58
2022-08-16T09:17:53.573Z,24.57
2022-08-16T09:18:53.727Z,24.57
2022-08-16T09:19:55.612Z,24.7
2022-08-16T09:20:58.615Z,24.64
2022-08-16T09:21:56.218Z,24.53
2022-08-16T09:22:52.654Z,24.54
2022-08-16T09:23:52.051Z,24.54
2022-08-16T09:24:54.010Z,24.84
2022-08-16T09:25:52.041Z,24.9
2022-08-16T09:26:52.411Z,24.89
2022-08-16T09:27:57.636Z,24.71
2022-08-16T09:29:15.789Z,24.69
2022-08-16T09:30:00.437Z,24.9
2022-08-16T09:30:52.043Z,24.67
2022-08-16T09:31:53.629Z,24.45
2022-08-16T09:32:52.057Z,24.56
2022-08-16T09:33:52.312Z,24.54
2022-08-16T09:34:52.048Z,24.53
2022-08-16T09:35:53.612Z,24.62
2022-08-16T09:36:53.934Z,24.62
2022-08-16T09:38:00.564Z,24.73
2022-08-16T09:38:52.039Z,24.73
2022-08-16T09:39:52.126Z,24.73
2022-08-16T09:40:52.106Z,24.67
2022-08-16T09:41:53.370Z,24.68
2022-08-16T09:42:56.382Z,24.57
2022-08-16T09:43:58.570Z,24.47
2022-08-16T09:45:09.121Z,24.62
2022-08-16T09:45:54.582Z,24.68
2022-08-16T09:46:57.462Z,24.68
2022-08-16T09:47:56.704Z,24.56
2022-08-16T09:48:52.044Z,24.4
2022-08-16T09:49:52.074Z,24.37
2022-08-16T09:50:52.046Z,24.34
2022-08-16T09:51:52.058Z,24.4
2022-08-16T09:52:52.102Z,24.47
2022-08-16T09:53:53.678Z,24.56
2022-08-16T09:54:52.040Z,24.56
2022-08-16T09:55:52.038Z,24.64
2022-08-16T09:56:53.681Z,24.64
2022-08-16T09:57:53.164Z,24.64
2022-08-16T09:59:03.712Z,24.7
2022-08-16T09:59:56.372Z,24.77
2022-08-16T10:00:52.066Z,24.8
2022-08-16T10:01:52.069Z,24.95
2022-08-16T10:02:52.061Z,24.95
2022-08-16T10:04:02.595Z,24.95
2022-08-16T10:04:53.026Z,24.86
2022-08-16T10:05:52.058Z,24.83
2022-08-16T10:06:52.077Z,24.82
2022-08-16T10:07:55.914Z,24.75
2022-08-16T10:09:04.082Z,24.81
2022-08-16T10:09:54.736Z,24.83
2022-08-16T10:10:52.052Z,24.83
2022-08-16T10:11:52.061Z,25.01
2022-08-16T10:12:55.555Z,25.01
2022-08-16T10:13:52.048Z,25.18
2022-08-16T10:14:52.055Z,25.2
2022-08-16T10:15:55.690Z,25.15
2022-08-16T10:16:59.807Z,25.15
2022-08-16T10:18:01.148Z,25.21
2022-08-16T10:19:02.211Z,25.18
2022-08-16T10:19:52.053Z,25.17
2022-08-16T10:20:52.055Z,25.22
2022-08-16T10:21:56.434Z,25.17
2022-08-16T10:22:58.807Z,25.14
2022-08-16T10:23:53.674Z,25.09
2022-08-16T10:24:55.967Z,25.11
2022-08-16T10:27:16.311Z,25.13
2022-08-16T10:27:20.326Z,25.16
2022-08-16T10:27:56.833Z,25.13
2022-08-16T10:28:52.057Z,25.14
2022-08-16T10:30:00.669Z,25.16
2022-08-16T10:30:56.182Z,25.15
2022-08-16T10:31:53.168Z,25.15
2022-08-16T10:32:52.045Z,25.15
2022-08-16T10:33:52.036Z,25.35
2022-08-16T10:34:52.346Z,25.57
2022-08-16T10:35:52.456Z,25.73
2022-08-16T10:36:54.356Z,25.75
2022-08-16T10:37:52.910Z,25.92
2022-08-16T10:38:52.166Z,25.92
2022-08-16T10:39:52.169Z,25.57
2022-08-16T10:40:52.052Z,25.52
2022-08-16T10:41:52.107Z,25.61
2022-08-16T10:42:52.047Z,25.81
2022-08-16T10:43:52.047Z,25.83
2022-08-16T10:44:54.569Z,25.74
2022-08-16T10:46:00.228Z,25.74
2022-08-16T10:46:52.061Z,25.89
2022-08-16T10:48:03.019Z,26.05
2022-08-16T10:48:52.054Z,26.16
2022-08-16T10:49:52.059Z,26.27
2022-08-16T10:50:52.041Z,26.18
2022-08-16T10:52:03.119Z,26.18
2022-08-16T10:52:56.837Z,26.18
2022-08-16T10:53:52.064Z,25.77
2022-08-16T10:54:59.594Z,26.57
2022-08-16T10:55:57.739Z,25.89
2022-08-16T10:56:55.657Z,25.92
2022-08-16T10:57:52.060Z,25.76
2022-08-16T10:58:52.053Z,25.69
2022-08-16T10:59:57.832Z,25.63
2022-08-16T11:00:57.265Z,25.5
2022-08-16T11:02:56.971Z,25.64
2022-08-16T11:02:58.779Z,26
2022-08-16T11:03:54.132Z,26
2022-08-16T11:05:07.086Z,26.14
2022-08-16T11:05:59.682Z,26.15
2022-08-16T11:07:08.185Z,26.15
2022-08-16T11:07:55.268Z,26.16
2022-08-16T11:09:21.007Z,26.16
2022-08-16T11:10:19.744Z,25.99
2022-08-16T11:11:06.760Z,26.03
2022-08-16T11:12:56.547Z,26.13
2022-08-16T11:13:59.304Z,26.02
2022-08-16T11:15:12.063Z,25.93
2022-08-16T11:15:57.516Z,25.89
2022-08-16T11:17:09.537Z,25.83
2022-08-16T11:19:03.899Z,26.01
2022-08-16T11:19:06.105Z,25.92
2022-08-16T11:20:56.329Z,25.88
2022-08-16T11:22:23.321Z,25.88
2022-08-16T11:22:56.337Z,25.88
2022-08-16T11:23:58.113Z,25.88
2022-08-16T11:25:12.158Z,25.88
2022-08-16T11:26:07.688Z,25.88
2022-08-16T11:27:21.172Z,25.88
2022-08-16T11:27:56.325Z,25.88
2022-08-16T11:29:14.766Z,25.88
2022-08-16T11:29:56.344Z,25.88
2022-08-16T11:30:57.395Z,25.88
2022-08-16T11:31:56.342Z,25.88
2022-08-16T11:32:56.332Z,25.88
2022-08-16T11:33:56.379Z,25.88
2022-08-16T11:35:13.285Z,25.88
2022-08-16T11:37:00.993Z,25.88
2022-08-16T11:38:46.798Z,25.88
2022-08-16T11:38:58.026Z,25.88
2022-08-16T11:39:59.953Z,25.88
2022-08-16T11:40:56.335Z,25.88
2022-08-16T11:41:56.346Z,25.88
2022-08-16T11:42:56.319Z,25.88
2022-08-16T11:43:56.342Z,25.88
2022-08-16T11:44:57.080Z,25.88
2022-08-16T11:45:56.676Z,25.88
2022-08-16T11:46:56.329Z,25.88
2022-08-16T11:47:56.375Z,25.88
2022-08-16T11:48:56.364Z,25.88
2022-08-16T11:49:56.323Z,25.88
2022-08-16T11:50:56.338Z,25.88
2022-08-16T11:51:56.385Z,25.88
2022-08-16T11:52:56.341Z,25.88
2022-08-16T11:53:56.349Z,25.88
2022-08-16T11:54:57.152Z,25.88
2022-08-16T11:55:56.329Z,25.88
2022-08-16T11:56:57.163Z,25.88
2022-08-16T11:57:57.444Z,25.88
2022-08-16T11:58:57.011Z,25.88
2022-08-16T11:59:56.334Z,25.88
2022-08-16T12:00:56.319Z,25.88
2022-08-16T12:01:59.189Z,25.88
2022-08-16T12:02:56.330Z,25.88
2022-08-16T12:03:56.343Z,25.88
2022-08-16T12:04:56.332Z,25.88
2022-08-16T12:05:56.345Z,25.88
2022-08-16T12:06:56.334Z,25.88
2022-08-16T12:07:56.338Z,25.88
2022-08-16T12:08:56.329Z,25.88
2022-08-16T12:09:56.331Z,25.88
2022-08-16T12:10:59.475Z,25.88
2022-08-16T12:11:56.334Z,25.88
2022-08-16T12:12:58.007Z,25.88
2022-08-16T12:13:56.346Z,25.88
2022-08-16T12:15:00.086Z,25.88
2022-08-16T12:15:56.323Z,25.88
2022-08-16T12:16:57.032Z,25.88
2022-08-16T12:17:56.319Z,25.88
2022-08-16T12:18:56.330Z,25.88
2022-08-16T12:19:56.325Z,25.88
2022-08-16T12:20:58.323Z,25.88
2022-08-16T12:21:58.907Z,25.88
2022-08-16T12:22:56.322Z,25.88
2022-08-16T12:23:56.361Z,25.88
2022-08-16T12:24:56.316Z,25.88
2022-08-16T12:25:56.325Z,25.88
2022-08-16T12:26:56.352Z,25.88
2022-08-16T12:27:56.317Z,25.88
2022-08-16T12:28:56.671Z,25.88
2022-08-16T12:29:58.339Z,25.88
2022-08-16T12:30:56.337Z,25.88
2022-08-16T12:32:26.571Z,25.88
2022-08-16T12:32:57.590Z,25.88
2022-08-16T12:33:57.867Z,25.88
2022-08-16T12:34:56.340Z,25.88
2022-08-16T12:35:56.313Z,25.88
2022-08-16T12:36:56.349Z,25.88
2022-08-16T12:37:56.813Z,25.88
2022-08-16T12:38:56.327Z,25.88
2022-08-16T12:39:56.460Z,25.88
2022-08-16T12:40:57.260Z,25.88
2022-08-16T12:41:56.337Z,25.88
2022-08-16T12:42:59.024Z,25.88
2022-08-16T12:43:57.061Z,25.88
2022-08-16T12:44:56.351Z,25.88
2022-08-16T12:45:56.325Z,25.88
2022-08-16T12:46:56.332Z,25.88
2022-08-16T12:48:16.002Z,25.88
2022-08-16T12:48:56.316Z,25.88
2022-08-16T12:49:56.314Z,25.88
2022-08-16T12:50:57.028Z,25.88
2022-08-16T12:51:59.291Z,25.88
2022-08-16T12:52:56.607Z,25.88
2022-08-16T12:53:56.339Z,25.88
2022-08-16T12:54:56.316Z,25.88
2022-08-16T12:55:56.336Z,25.88
2022-08-16T12:56:56.344Z,25.88
2022-08-16T12:57:58.520Z,25.88
2022-08-16T12:58:56.315Z,25.88
2022-08-16T12:59:56.324Z,25.88
2022-08-16T13:00:56.415Z,25.88
2022-08-16T13:01:58.155Z,25.88
2022-08-16T13:02:56.314Z,25.88
2022-08-16T13:04:11.275Z,25.88
2022-08-16T13:04:56.318Z,25.88